Terminal Aerodrome Forecast
Issued by NWS

Home | Current Version | Previous Version | Text Only | Print | Product List | Glossary On
Versions: 1 2 3 4 5 6 7 8 9 10 11 12 13
000
FTUS43 KTOP 301700
TAFFOE
TAF
KFOE 301731Z 3018/3118 34013G22KT P6SM SKC
     FM310600 36010KT P6SM SCT012
     FM311400 02011KT P6SM FEW030=

USA.gov is the U.S. government's official web portal to all federal, state and local government web resources and services.